Time;durP1;ratioP1;P1;durP2;ratioP2;P2;SDS_P1;SDS_P2;PMS_P1;PMS_P2;Temp;Humidity;BMP_temperature;BMP_pressure;BME280_temperature;BME280_humidity;BME280_pressure;Samples;Min_cycle;Max_cycle;Signal;HPM_P1;HPM_P2
2024/02/07 00:00:10;;;;;;;17.65;5.78;;;10.60;99.90;;;10.36;87.31;99318.34;5017255;28;20561;-80
2024/02/07 00:02:38;;;;;;;15.68;6.28;;;10.50;99.90;;;10.26;87.57;99305.66;4999646;28;20058;-80
2024/02/07 00:05:08;;;;;;;17.27;6.32;;;10.50;99.90;;;10.28;87.93;99295.53;4951142;28;20042;-80
2024/02/07 00:07:35;;;;;;;23.23;6.87;;;10.50;99.90;;;10.20;88.68;99303.91;5035888;28;20049;-81
2024/02/07 00:10:03;;;;;;;20.83;7.15;;;10.50;99.90;;;10.27;88.84;99306.44;5052721;28;20073;-81
2024/02/07 00:12:32;;;;;;;22.30;6.78;;;10.50;99.90;;;10.29;88.81;99296.34;5025423;28;20061;-81
2024/02/07 00:15:00;;;;;;;24.58;6.80;;;10.50;99.90;;;10.23;89.00;99307.94;5000662;28;20473;-82
2024/02/07 00:17:27;;;;;;;18.85;6.70;;;10.50;99.90;;;10.27;89.21;99295.78;5037020;28;20037;-81
2024/02/07 00:19:55;;;;;;;13.93;6.22;;;10.50;99.90;;;10.28;89.26;99306.22;5003324;28;20049;-81
2024/02/07 00:22:23;;;;;;;21.77;7.05;;;10.50;99.90;;;10.28;89.50;99292.88;5019762;28;20140;-81
2024/02/07 00:24:51;;;;;;;18.35;6.45;;;10.50;99.90;;;10.27;89.39;99293.94;5018891;28;20506;-81
2024/02/07 00:27:18;;;;;;;20.10;6.57;;;10.50;99.90;;;10.29;89.64;99283.03;5018897;28;20433;-81
2024/02/07 00:29:52;;;;;;;17.83;7.35;;;10.50;99.90;;;10.24;90.14;99283.75;5037301;28;20090;-81
2024/02/07 00:32:20;;;;;;;16.38;7.00;;;10.50;99.90;;;10.17;91.02;99282.25;5036793;28;20045;-81
2024/02/07 00:34:48;;;;;;;18.00;6.70;;;10.40;99.90;;;10.21;91.24;99286.88;5019650;28;20493;-81
2024/02/07 00:37:16;;;;;;;13.50;6.85;;;10.50;99.90;;;10.21;91.18;99260.22;5003434;28;20037;-80
2024/02/07 00:39:44;;;;;;;14.68;6.80;;;10.50;99.90;;;10.26;91.39;99273.66;5003519;28;20052;-80
2024/02/07 00:42:12;;;;;;;16.17;7.70;;;10.50;99.90;;;10.26;91.46;99262.22;5018531;28;20098;-80
2024/02/07 00:44:40;;;;;;;14.88;6.85;;;10.50;99.90;;;10.26;91.47;99260.34;5018844;28;20497;-80
2024/02/07 00:47:10;;;;;;;14.07;6.75;;;10.50;99.90;;;10.21;91.77;99262.88;5036431;28;20064;-80
2024/02/07 00:49:38;;;;;;;18.08;6.70;;;10.50;99.90;;;10.22;92.27;99256.50;5019170;28;20061;-80
2024/02/07 00:52:06;;;;;;;16.30;6.75;;;10.50;99.90;;;10.25;92.50;99258.75;5036576;28;20504;-81
2024/02/07 00:54:34;;;;;;;19.05;7.53;;;10.50;99.90;;;10.26;92.50;99262.22;5036707;28;20033;-81
2024/02/07 00:57:02;;;;;;;17.45;7.40;;;10.50;99.90;;;10.23;92.73;99266.13;5019310;28;20079;-81
2024/02/07 00:59:29;;;;;;;19.23;7.68;;;10.50;99.90;;;10.25;92.97;99258.75;5037088;28;20052;-81
2024/02/07 01:01:56;;;;;;;18.27;7.45;;;10.50;99.90;;;10.23;92.93;99260.78;5018357;28;20038;-80
2024/02/07 01:04:25;;;;;;;16.67;7.38;;;10.50;99.90;;;10.22;93.30;99261.03;5019009;28;20563;-80
2024/02/07 01:06:53;;;;;;;16.58;6.80;;;10.50;99.90;;;10.23;93.35;99244.78;5036152;28;20127;-81
2024/02/07 01:09:21;;;;;;;18.23;7.05;;;10.50;99.90;;;10.21;93.54;99249.56;5036807;28;20119;-81
2024/02/07 01:11:49;;;;;;;16.92;7.32;;;10.50;99.90;;;10.17;93.88;99251.09;5017725;28;20143;-81
2024/02/07 01:14:16;;;;;;;20.33;7.40;;;10.50;99.90;;;10.21;94.10;99241.56;5018014;28;20068;-80
2024/02/07 01:16:44;;;;;;;17.27;7.28;;;10.50;99.90;;;10.22;94.29;99229.88;5033464;28;20049;-80
2024/02/07 01:19:14;;;;;;;17.13;7.20;;;10.50;99.90;;;10.20;94.19;99234.63;4982070;28;20052;-80
2024/02/07 01:21:42;;;;;;;17.80;8.05;;;10.50;99.90;;;10.21;94.44;99225.59;5015511;28;20075;-80
2024/02/07 01:24:10;;;;;;;21.52;8.00;;;10.50;99.90;;;10.20;94.58;99233.81;4998200;28;20049;-80
2024/02/07 01:26:38;;;;;;;17.67;7.32;;;10.50;99.90;;;10.23;94.66;99238.66;5031783;28;20121;-80
2024/02/07 01:29:06;;;;;;;19.92;7.78;;;10.50;99.90;;;10.26;94.67;99247.03;4984575;28;20045;-80
2024/02/07 01:31:33;;;;;;;18.75;7.53;;;10.50;99.90;;;10.28;94.45;99236.13;5017381;28;20060;-80
2024/02/07 01:34:00;;;;;;;11.93;6.68;;;10.50;99.90;;;10.28;94.42;99225.47;5035674;28;20073;-80
2024/02/07 01:36:28;;;;;;;17.45;7.40;;;10.50;99.90;;;10.25;94.45;99224.09;5050574;28;20099;-80
2024/02/07 01:38:57;;;;;;;17.23;7.00;;;10.50;99.90;;;10.26;94.61;99212.38;5035414;28;20112;-81
2024/02/07 01:41:25;;;;;;;17.30;7.43;;;10.60;99.90;;;10.26;94.81;99240.88;5034905;28;20049;-81
2024/02/07 01:43:53;;;;;;;14.90;7.15;;;10.50;99.90;;;10.28;94.96;99242.25;5035289;28;20065;-81
2024/02/07 01:46:21;;;;;;;17.73;7.63;;;10.60;99.90;;;10.20;95.11;99225.81;5016997;28;20045;-81
2024/02/07 01:48:49;;;;;;;15.23;7.13;;;10.60;99.90;;;10.23;95.36;99236.00;5035466;28;20092;-81
2024/02/07 01:51:19;;;;;;;17.33;7.18;;;10.50;99.90;;;10.22;95.53;99223.72;5050304;28;20063;-81
2024/02/07 01:53:49;;;;;;;19.73;7.00;;;10.60;99.90;;;10.26;95.64;99223.03;5035085;28;20045;-81
2024/02/07 01:56:19;;;;;;;12.85;6.97;;;10.60;99.90;;;10.29;95.35;99230.53;5001282;28;20095;-81
2024/02/07 01:58:47;;;;;;;13.73;7.47;;;10.50;99.90;;;10.24;95.20;99225.13;5035241;28;20049;-80
2024/02/07 02:01:15;;;;;;;16.98;6.80;;;10.60;99.90;;;10.24;95.33;99224.31;5016876;28;20049;-80
2024/02/07 02:03:43;;;;;;;13.77;6.88;;;10.50;99.90;;;10.25;95.52;99253.41;5034591;28;20057;-80
2024/02/07 02:06:12;;;;;;;12.63;6.85;;;10.50;99.90;;;10.21;95.68;99236.25;5016638;28;20037;-80
2024/02/07 02:08:39;;;;;;;14.52;6.55;;;10.50;99.90;;;10.26;95.91;99239.03;5016879;28;20057;-80
2024/02/07 02:11:10;;;;;;;15.70;7.30;;;10.50;99.90;;;10.30;95.65;99234.03;5034612;28;20137;-80
2024/02/07 02:13:40;;;;;;;17.30;7.40;;;10.60;99.90;;;10.30;95.49;99226.84;5016851;28;20532;-80
2024/02/07 02:16:08;;;;;;;15.38;7.10;;;10.50;99.90;;;10.34;95.36;99229.81;5034857;28;20040;-80
2024/02/07 02:18:35;;;;;;;17.27;7.75;;;10.60;99.90;;;10.31;95.33;99222.31;5034325;28;20046;-81
2024/02/07 02:21:06;;;;;;;13.75;7.70;;;10.50;99.90;;;10.30;95.40;99218.84;5049501;28;20049;-81
2024/02/07 02:24:11;;;;;;;18.60;7.72;;;10.60;99.90;;;10.25;95.32;99213.44;4984404;28;20049;-81
2024/02/07 02:27:01;;;;;;;18.55;7.30;;;10.50;99.90;;;10.24;95.42;99209.13;5034200;28;20121;-80
2024/02/07 02:29:42;;;;;;;12.65;6.80;;;10.50;99.90;;;10.27;95.34;99211.34;5015427;28;20037;-81
2024/02/07 02:32:10;;;;;;;12.70;6.65;;;10.50;99.90;;;10.24;95.23;99203.81;5005250;28;20057;-80
2024/02/07 02:34:40;;;;;;;13.15;7.47;;;10.50;99.90;;;10.27;95.33;99194.53;5018241;28;20053;-80
2024/02/07 02:37:07;;;;;;;13.57;7.13;;;10.50;99.90;;;10.28;95.13;99204.16;5017076;28;20140;-80
2024/02/07 02:39:36;;;;;;;12.23;6.60;;;10.60;99.90;;;10.28;95.15;99188.97;5016708;28;20084;-80
2024/02/07 02:42:04;;;;;;;13.23;6.43;;;10.50;99.90;;;10.30;95.00;99178.09;5003524;28;20041;-80
2024/02/07 02:44:33;;;;;;;12.73;6.28;;;10.50;99.90;;;10.31;94.90;99177.03;4986815;28;20088;-81
2024/02/07 02:47:02;;;;;;;18.20;6.60;;;10.50;99.90;;;10.35;94.98;99169.38;5019960;28;20049;-80
2024/02/07 02:49:30;;;;;;;12.98;6.35;;;10.50;99.90;;;10.30;94.57;99159.44;5037542;28;20051;-80
2024/02/07 02:51:57;;;;;;;15.23;6.32;;;10.50;99.90;;;10.28;94.57;99143.66;5037602;28;20049;-80
2024/02/07 02:54:24;;;;;;;13.57;6.53;;;10.50;99.90;;;10.28;94.75;99150.84;5036195;28;20144;-80
2024/02/07 02:56:59;;;;;;;15.30;6.53;;;10.50;99.90;;;10.24;94.88;99142.53;5039816;28;20041;-80
2024/02/07 02:59:27;;;;;;;19.42;7.07;;;10.50;99.90;;;10.25;94.78;99140.69;5039691;28;20099;-80
2024/02/07 03:01:59;;;;;;;13.75;6.03;;;10.50;99.90;;;10.20;94.81;99144.06;5039442;28;20467;-80
2024/02/07 03:04:32;;;;;;;11.88;6.30;;;10.40;99.90;;;10.25;94.86;99184.13;5039479;28;20056;-80
2024/02/07 03:07:25;;;;;;;10.90;6.20;;;10.50;99.90;;;10.26;94.99;99191.06;5019080;28;20045;-81
2024/02/07 03:09:51;;;;;;;6.75;3.58;;;10.50;99.90;;;10.16;91.54;99153.56;5019768;28;20060;-81
2024/02/07 03:12:18;;;;;;;5.72;2.88;;;10.30;99.90;;;10.01;88.73;99182.59;5019454;28;20076;-80
2024/02/07 03:14:45;;;;;;;8.10;2.65;;;10.10;99.90;;;9.96;86.18;99174.53;5038199;28;20489;-80
2024/02/07 03:17:15;;;;;;;6.03;2.80;;;10.00;99.90;;;9.85;84.56;99191.34;5003149;28;20539;-80
2024/02/07 03:19:42;;;;;;;7.70;3.45;;;9.80;99.90;;;9.77;81.47;99249.25;5035917;28;20068;-80
2024/02/07 03:22:09;;;;;;;7.68;2.95;;;9.70;99.90;;;9.60;81.59;99240.38;5052646;28;20456;-80
2024/02/07 03:24:37;;;;;;;8.48;2.95;;;9.50;99.90;;;9.61;81.64;99167.47;5036695;28;20045;-80
2024/02/07 03:27:04;;;;;;;7.05;2.45;;;9.40;99.90;;;9.30;77.90;99171.38;5036026;28;20029;-80
2024/02/07 03:29:32;;;;;;;6.18;2.20;;;9.20;99.90;;;8.87;77.55;99230.28;5036083;28;20598;-80
2024/02/07 03:32:00;;;;;;;14.93;2.63;;;8.70;99.90;;;8.85;79.32;99253.63;5036631;28;20045;-80
2024/02/07 03:34:30;;;;;;;7.88;2.75;;;8.60;99.90;;;8.93;78.94;99263.91;5036214;28;20052;-80
2024/02/07 03:36:57;;;;;;;8.82;2.33;;;8.60;99.90;;;8.95;78.00;99253.88;5018875;28;20073;-80
2024/02/07 03:39:25;;;;;;;6.15;2.10;;;8.60;99.90;;;8.98;77.81;99264.06;5034980;28;20049;-80
2024/02/07 03:41:52;;;;;;;5.72;2.05;;;8.70;99.90;;;8.96;77.52;99266.13;5036465;28;20464;-80
2024/02/07 03:44:21;;;;;;;5.28;1.98;;;8.60;99.90;;;8.95;77.70;99283.91;5037093;28;20049;-80
2024/02/07 03:46:48;;;;;;;5.32;1.60;;;8.60;99.90;;;8.95;76.89;99272.47;4986597;28;20512;-80
2024/02/07 03:49:20;;;;;;;9.23;1.70;;;8.60;99.90;;;8.92;76.73;99257.78;5036073;28;20038;-80
2024/02/07 03:51:52;;;;;;;6.47;1.60;;;8.60;99.90;;;8.84;76.27;99252.00;5036208;28;20420;-80
2024/02/07 03:54:20;;;;;;;8.25;2.08;;;8.60;99.90;;;8.73;76.32;99256.25;4986858;28;20562;-80
2024/02/07 03:56:47;;;;;;;5.53;1.90;;;8.40;99.90;;;8.75;76.48;99249.69;5035444;28;20464;-80
2024/02/07 03:59:15;;;;;;;7.10;1.50;;;8.40;99.90;;;8.74;76.23;99258.69;5018182;28;20053;-80
2024/02/07 04:01:45;;;;;;;8.07;2.00;;;8.40;99.90;;;8.69;76.27;99277.19;5018149;28;20049;-80
2024/02/07 04:04:12;;;;;;;7.45;1.95;;;8.40;99.90;;;8.68;75.75;99286.19;5018636;28;20049;-80
2024/02/07 04:06:40;;;;;;;5.45;2.10;;;8.30;99.90;;;8.59;75.30;99289.38;5036033;28;20132;-80
2024/02/07 04:09:09;;;;;;;6.10;2.58;;;8.20;99.90;;;8.59;75.96;99292.03;5035721;28;20042;-80
2024/02/07 05:17:06;;;;;;;4.55;1.60;;;7.90;99.90;;;8.15;75.15;99371.91;5034762;28;20045;-81
2024/02/07 05:19:36;;;;;;;4.28;1.50;;;7.80;99.90;;;8.11;75.00;99375.22;5034281;28;20056;-84
2024/02/07 05:22:04;;;;;;;4.57;1.40;;;7.80;99.90;;;8.12;75.39;99375.00;5034825;28;20041;-84
2024/02/07 05:24:32;;;;;;;6.95;1.45;;;7.80;99.90;;;7.98;75.03;99376.16;4967145;28;20055;-84
2024/02/07 05:27:00;;;;;;;8.27;1.45;;;7.70;99.90;;;7.97;74.86;99374.56;4999901;28;20049;-85
2024/02/07 05:29:29;;;;;;;10.07;1.60;;;7.70;99.90;;;7.85;74.16;99387.72;5016912;28;20132;-84
2024/02/07 05:31:57;;;;;;;6.63;1.38;;;7.50;99.90;;;7.88;74.98;99389.16;5033796;28;20045;-85
2024/02/07 05:34:25;;;;;;;5.07;1.20;;;7.50;99.90;;;7.82;73.81;99392.69;5016398;28;20136;-84
2024/02/07 05:36:53;;;;;;;10.68;1.40;;;7.50;99.90;;;7.72;73.99;99394.00;5016173;28;20493;-84
2024/02/07 05:39:22;;;;;;;8.20;1.55;;;7.40;99.90;;;7.74;74.06;99396.44;5032987;28;20049;-84
2024/02/07 05:41:50;;;;;;;7.22;1.50;;;7.40;99.90;;;7.73;73.79;99395.63;5033521;28;20073;-84
2024/02/07 05:44:17;;;;;;;8.35;1.70;;;7.50;99.90;;;7.71;73.96;99403.00;4983333;28;20049;-84
2024/02/07 05:46:46;;;;;;;5.53;1.25;;;7.40;99.90;;;7.64;74.32;99396.91;5033556;28;20042;-84
2024/02/07 05:49:14;;;;;;;5.80;1.30;;;7.30;99.90;;;7.63;74.06;99408.56;5016008;28;20069;-84
2024/02/07 05:51:42;;;;;;;10.80;1.67;;;7.30;99.90;;;7.62;73.58;99409.59;5016046;28;20060;-84
2024/02/07 05:54:10;;;;;;;5.10;1.50;;;7.20;99.90;;;7.58;74.26;99404.97;5015919;28;20139;-84
2024/02/07 05:56:37;;;;;;;7.35;3.00;;;7.20;99.90;;;7.66;73.80;99404.66;4999301;28;20073;-84
2024/02/07 05:59:06;;;;;;;8.88;2.50;;;7.30;99.90;;;7.64;73.08;99409.38;5016361;28;20131;-86
2024/02/07 06:01:34;;;;;;;6.47;2.40;;;7.30;99.90;;;7.63;73.27;99405.91;5033180;28;20068;-83
2024/02/07 06:04:06;;;;;;;9.75;2.38;;;7.30;99.90;;;7.65;73.52;99418.97;5019762;28;20084;-89
2024/02/07 06:06:33;;;;;;;6.22;2.00;;;7.30;99.90;;;7.61;73.00;99421.25;5019671;28;20052;-89
2024/02/07 06:09:01;;;;;;;6.07;2.20;;;7.30;99.90;;;7.59;72.58;99436.56;5002879;28;20058;-89
2024/02/07 06:11:31;;;;;;;7.43;2.03;;;7.20;99.90;;;7.59;72.62;99409.22;5036935;28;20128;-89
2024/02/07 06:13:59;;;;;;;5.93;1.70;;;7.20;99.90;;;7.52;72.73;99403.19;5003293;28;20061;-89
2024/02/07 06:16:27;;;;;;;4.68;1.60;;;7.20;99.90;;;7.54;72.19;99401.91;5036907;28;20050;-87
2024/02/07 06:18:55;;;;;;;5.95;1.55;;;7.20;99.90;;;7.50;72.42;99416.63;5036761;28;20062;-91
2024/02/07 06:21:24;;;;;;;6.18;1.60;;;7.10;99.90;;;7.41;71.80;99410.78;5019049;28;20053;-90
2024/02/07 06:23:51;;;;;;;4.40;1.40;;;7.10;99.90;;;7.33;71.28;99426.19;5037136;28;20452;-90
2024/02/07 06:26:19;;;;;;;5.35;1.95;;;7.00;99.90;;;7.35;72.11;99424.13;5019216;28;20084;-86
2024/02/07 06:28:46;;;;;;;5.70;1.50;;;6.90;99.90;;;7.29;71.82;99431.09;5036818;28;20512;-86
2024/02/07 06:31:14;;;;;;;4.72;1.58;;;6.90;99.90;;;7.31;71.67;99428.22;5018770;28;20132;-86
2024/02/07 06:33:41;;;;;;;4.78;1.40;;;6.90;99.90;;;7.26;71.60;99425.41;5036103;28;20046;-82
2024/02/07 06:36:09;;;;;;;5.22;1.52;;;6.80;99.90;;;7.26;71.31;99430.72;5020279;28;20077;-82
2024/02/07 06:38:38;;;;;;;6.60;1.90;;;6.80;99.90;;;7.23;71.05;99442.56;5038473;28;20045;-82
2024/02/07 06:41:06;;;;;;;6.88;1.50;;;6.80;99.90;;;7.20;71.42;99427.06;5037968;28;20064;-82
2024/02/07 06:43:33;;;;;;;4.68;1.50;;;6.80;99.90;;;7.19;71.07;99442.19;4971173;28;20053;-82
2024/02/07 06:46:04;;;;;;;5.50;1.80;;;6.80;99.90;;;7.20;70.80;99427.88;5038143;28;20072;-82
2024/02/07 06:48:31;;;;;;;11.60;1.88;;;6.80;99.90;;;7.19;70.71;99426.28;5025622;28;20048;-82
2024/02/07 06:50:59;;;;;;;4.10;1.80;;;6.80;99.90;;;7.15;70.31;99416.31;5023138;28;20060;-82
2024/02/07 06:53:26;;;;;;;7.18;1.77;;;6.80;99.90;;;7.14;70.86;99415.50;5044019;28;20079;-82
2024/02/07 06:55:55;;;;;;;6.13;1.50;;;6.80;99.90;;;7.17;71.02;99427.50;5019906;28;20045;-82
2024/02/07 06:58:23;;;;;;;5.47;1.63;;;6.80;99.90;;;7.17;71.13;99423.03;5003205;28;20045;-82
2024/02/07 07:00:51;;;;;;;4.95;1.60;;;6.80;99.90;;;7.14;70.65;99428.75;5019945;28;20125;-82
2024/02/07 07:03:18;;;;;;;5.57;1.77;;;6.80;99.90;;;7.13;70.72;99423.69;5037510;28;20052;-82
2024/02/07 07:05:46;;;;;;;4.97;1.50;;;6.80;99.90;;;7.13;70.68;99424.47;4997077;28;20055;-82
2024/02/07 07:08:13;;;;;;;4.90;1.52;;;6.80;99.90;;;7.14;70.66;99430.59;5019875;28;20064;-82
2024/02/07 07:10:42;;;;;;;5.80;1.55;;;6.80;99.90;;;7.13;70.76;99431.63;5032812;28;20468;-82
2024/02/07 07:13:13;;;;;;;5.28;1.70;;;6.80;99.90;;;7.10;70.40;99450.59;5019349;28;20065;-82
2024/02/07 07:15:40;;;;;;;4.90;1.73;;;6.70;99.90;;;7.06;70.93;99446.75;5018984;28;20053;-82
2024/02/07 07:18:09;;;;;;;4.88;1.80;;;6.70;99.90;;;7.07;70.86;99456.31;5019863;28;20489;-82
2024/02/07 07:20:36;;;;;;;6.65;2.17;;;6.70;99.90;;;7.05;71.08;99458.38;5037751;28;20409;-82
2024/02/07 07:23:04;;;;;;;4.82;1.92;;;6.80;99.90;;;7.04;71.31;99468.19;5037704;28;20072;-82
2024/02/07 07:25:31;;;;;;;5.40;2.47;;;6.70;99.90;;;7.04;70.92;99465.53;5036461;28;20497;-82
2024/02/07 07:27:59;;;;;;;4.85;2.40;;;6.70;99.90;;;7.08;71.09;99473.88;5018922;28;20129;-82
2024/02/07 07:30:28;;;;;;;6.90;2.90;;;6.70;99.90;;;7.08;70.47;99466.72;5018778;28;20087;-82
2024/02/07 07:32:56;;;;;;;7.78;3.30;;;6.80;99.90;;;7.07;70.84;99470.38;5037463;28;20065;-82
2024/02/07 07:35:24;;;;;;;9.82;4.50;;;6.80;99.90;;;7.10;70.95;99469.16;5002584;28;20061;-82
2024/02/07 07:37:51;;;;;;;8.20;3.25;;;6.80;99.90;;;7.09;70.57;99471.00;5019483;28;20037;-82
2024/02/07 07:40:19;;;;;;;9.07;3.88;;;6.80;99.90;;;7.07;70.84;99478.34;5036539;28;20555;-82
2024/02/07 07:42:47;;;;;;;7.10;3.08;;;6.70;99.90;;;7.06;71.36;99481.22;5003039;28;20057;-85
2024/02/07 07:45:14;;;;;;;8.98;3.63;;;6.70;99.90;;;7.03;71.47;99485.13;5052857;28;20038;-82
2024/02/07 07:47:43;;;;;;;6.85;3.63;;;6.70;99.90;;;7.02;71.59;99482.66;5020424;28;20081;-82
2024/02/07 07:50:11;;;;;;;9.52;3.75;;;6.70;99.90;;;7.00;71.82;99488.19;5037348;28;20053;-82
2024/02/07 07:52:39;;;;;;;6.30;3.90;;;6.70;99.90;;;7.01;71.94;99491.63;5035536;28;20095;-82
2024/02/07 07:55:07;;;;;;;8.10;4.15;;;6.70;99.90;;;7.04;71.43;99486.75;5019820;28;20048;-82
2024/02/07 07:57:35;;;;;;;7.60;3.92;;;6.70;99.90;;;7.05;70.96;99483.06;5003304;28;20060;-82
2024/02/07 08:00:02;;;;;;;7.68;4.20;;;6.70;99.90;;;7.01;71.36;99486.34;5037721;28;20111;-82
2024/02/07 08:02:39;;;;;;;8.88;4.10;;;6.70;99.90;;;7.01;71.76;99491.63;5038016;28;20045;-82
2024/02/07 08:05:08;;;;;;;8.88;4.10;;;6.70;99.90;;;7.02;71.73;99490.59;5037523;28;20050;-82
2024/02/07 08:07:35;;;;;;;9.43;4.05;;;6.70;99.90;;;7.01;71.69;99487.16;5037586;28;20045;-82
2024/02/07 08:10:04;;;;;;;7.85;3.50;;;6.70;99.90;;;7.02;72.18;99482.66;5037602;28;20052;-82
2024/02/07 08:12:32;;;;;;;8.80;3.47;;;6.70;99.90;;;7.03;71.88;99490.41;5019478;28;20045;-82
2024/02/07 08:14:59;;;;;;;6.20;3.13;;;6.70;99.90;;;7.03;71.44;99485.13;5036652;28;20424;-82
2024/02/07 08:17:26;;;;;;;8.38;3.72;;;6.70;99.90;;;7.05;71.63;99492.84;5037418;28;20080;-82
2024/02/07 08:19:55;;;;;;;6.55;3.60;;;6.70;99.90;;;7.05;71.65;99498.16;5019229;28;20448;-82
2024/02/07 08:22:24;;;;;;;8.27;4.00;;;6.70;99.90;;;7.04;71.89;99484.09;5036855;28;20056;-82
2024/02/07 08:24:54;;;;;;;7.65;4.15;;;6.70;99.90;;;7.06;72.23;99491.81;5035766;28;20061;-82
2024/02/07 08:27:22;;;;;;;6.10;3.42;;;6.80;99.90;;;7.05;71.74;99496.31;5036624;28;20046;-82
2024/02/07 08:29:49;;;;;;;9.25;4.00;;;6.80;99.90;;;7.04;71.77;99492.03;5037961;28;20045;-82
2024/02/07 08:32:16;;;;;;;10.32;4.15;;;6.70;99.90;;;7.04;71.77;99489.38;5036963;28;20045;-82
2024/02/07 08:34:44;;;;;;;9.00;3.67;;;6.70;99.90;;;7.05;72.11;99485.72;5037638;28;20050;-82
2024/02/07 08:37:12;;;;;;;9.27;3.40;;;6.80;99.90;;;7.07;72.57;99485.47;5034993;28;20045;-82
2024/02/07 08:39:40;;;;;;;6.57;2.70;;;6.80;99.90;;;7.12;72.44;99488.31;5018981;28;20051;-82
2024/02/07 08:42:08;;;;;;;7.32;2.55;;;6.80;99.90;;;7.13;72.54;99497.91;5035720;28;20052;-82
2024/02/07 08:44:38;;;;;;;7.57;2.55;;;6.80;99.90;;;7.11;72.53;99500.75;5036395;28;20045;-82
2024/02/07 08:47:06;;;;;;;7.75;2.60;;;6.80;99.90;;;7.11;72.30;99513.19;5019790;28;20060;-84
2024/02/07 08:49:33;;;;;;;8.35;2.85;;;6.80;99.90;;;7.07;72.68;99520.75;5006174;28;20100;-82
2024/02/07 08:52:00;;;;;;;8.15;2.67;;;6.80;99.90;;;7.09;72.93;99534.63;5015494;28;20046;-82
2024/02/07 08:54:28;;;;;;;7.60;2.58;;;6.80;99.90;;;7.09;73.17;99525.88;5011197;28;20468;-82
2024/02/07 08:56:56;;;;;;;11.27;3.13;;;6.80;99.90;;;7.11;73.58;99534.41;5036295;28;20049;-82
2024/02/07 08:59:24;;;;;;;7.07;3.03;;;6.80;99.90;;;7.11;74.06;99529.91;5018744;28;20041;-82
2024/02/07 09:01:51;;;;;;;6.63;3.20;;;6.80;99.90;;;7.15;74.46;99525.00;5035768;28;20045;-82
2024/02/07 09:04:19;;;;;;;8.00;3.58;;;6.90;99.90;;;7.17;74.06;99536.22;5035977;28;20049;-82
2024/02/07 09:06:47;;;;;;;8.05;3.83;;;6.90;99.90;;;7.15;73.86;99533.78;5036408;28;20493;-82
2024/02/07 09:09:14;;;;;;;7.82;3.70;;;6.90;99.90;;;7.16;74.14;99540.69;5035495;28;20045;-82
2024/02/07 09:11:42;;;;;;;10.73;4.85;;;6.90;99.90;;;7.16;74.09;99540.69;5035417;28;20045;-82
2024/02/07 09:14:11;;;;;;;12.57;4.88;;;6.90;99.90;;;7.16;73.81;99548.66;5000772;28;20061;-81
2024/02/07 09:16:39;;;;;;;12.00;4.60;;;6.90;99.90;;;7.14;73.61;99541.94;5016293;28;20049;-81
2024/02/07 09:19:07;;;;;;;12.20;5.03;;;6.80;99.90;;;7.14;73.96;99544.59;5033867;28;20045;-81
2024/02/07 09:21:35;;;;;;;16.05;5.10;;;6.80;99.90;;;7.15;74.33;99540.91;5034091;28;20049;-85
2024/02/07 09:24:04;;;;;;;12.15;4.60;;;6.90;99.90;;;7.15;74.32;99547.03;5034194;28;20383;-88
2024/02/07 09:26:31;;;;;;;12.63;4.10;;;6.90;99.90;;;7.17;74.25;99552.97;5000151;28;20489;-88
2024/02/07 09:28:59;;;;;;;11.13;5.03;;;6.90;99.90;;;7.20;74.63;99544.56;5033783;28;20057;-88
2024/02/07 09:31:28;;;;;;;9.73;4.20;;;6.90;99.90;;;7.24;74.78;99552.91;5016241;28;20108;-88
2024/02/07 09:33:56;;;;;;;11.32;4.40;;;7.00;99.90;;;7.23;74.59;99552.09;5014334;28;20069;-87
2024/02/07 09:36:23;;;;;;;8.65;4.30;;;7.00;99.90;;;7.26;74.54;99553.50;4995800;28;20069;-86
2024/02/07 09:38:51;;;;;;;11.65;4.80;;;7.00;99.90;;;7.26;74.31;99563.31;5013891;28;20053;-86
2024/02/07 09:41:20;;;;;;;8.60;4.13;;;7.00;99.90;;;7.24;74.58;99560.88;4995513;28;20057;-86
2024/02/07 09:43:50;;;;;;;13.70;4.28;;;7.00;99.90;;;7.27;74.85;99555.16;4981099;28;20564;-82
2024/02/07 09:46:21;;;;;;;12.25;4.38;;;7.00;99.90;;;7.27;74.51;99543.69;5014470;28;20054;-82
2024/02/07 09:48:50;;;;;;;18.95;7.10;;;7.00;99.90;;;7.28;74.85;99540.84;5015177;28;20088;-82
2024/02/07 09:51:19;;;;;;;16.85;5.35;;;7.00;99.90;;;7.28;74.37;99546.16;4996311;28;20136;-83
2024/02/07 09:53:47;;;;;;;14.10;4.88;;;7.00;99.90;;;7.28;74.32;99548.00;5015037;28;20050;-82
2024/02/07 09:56:16;;;;;;;10.75;4.20;;;7.00;99.90;;;7.28;74.33;99553.31;5014959;28;20520;-82
2024/02/07 09:58:44;;;;;;;14.38;4.53;;;7.00;99.90;;;7.26;74.66;99542.09;4981257;28;20050;-82
2024/02/07 10:01:15;;;;;;;10.77;4.20;;;7.00;99.90;;;7.29;74.83;99546.97;4997352;28;20046;-82
2024/02/07 10:03:48;;;;;;;9.57;4.47;;;7.00;99.90;;;7.29;75.17;99560.25;4996876;28;20069;-82
2024/02/07 10:06:17;;;;;;;13.88;5.15;;;7.00;99.90;;;7.27;75.32;99563.13;5014842;28;20460;-82
2024/02/07 10:08:48;;;;;;;12.98;4.80;;;7.00;99.90;;;7.26;75.48;99564.09;5016059;28;20038;-82
2024/02/07 10:11:17;;;;;;;;;;;7.00;99.90;;;7.22;74.92;99568.19;5016655;28;20133;-82
2024/02/07 10:13:46;;;;;;;12.57;4.47;;;7.00;99.90;;;7.21;74.87;99575.34;5015016;28;19928;-82
2024/02/07 10:16:14;;;;;;;10.75;5.25;;;7.00;99.90;;;7.27;75.05;99562.28;4997689;28;20049;-82
2024/02/07 10:18:44;;;;;;;15.90;5.10;;;7.00;99.90;;;7.28;75.03;99561.28;5015908;28;20045;-82
2024/02/07 10:21:17;;;;;;;16.55;5.90;;;7.10;99.90;;;7.31;74.74;99568.78;4997968;28;20045;-82
2024/02/07 10:23:46;;;;;;;13.32;5.45;;;7.10;99.90;;;7.33;75.34;99569.41;5014069;28;20046;-82
2024/02/07 10:26:14;;;;;;;14.90;5.78;;;7.10;99.90;;;7.35;75.72;99572.63;5016520;28;20045;-82
2024/02/07 10:28:42;;;;;;;9.88;5.38;;;7.10;99.90;;;7.34;75.27;99576.31;5016222;28;20053;-82
2024/02/07 10:31:13;;;;;;;14.48;5.50;;;7.10;99.90;;;7.35;75.41;99577.94;5015131;28;20513;-82
2024/02/07 10:33:44;;;;;;;18.10;6.20;;;7.10;99.90;;;7.33;75.38;99585.31;4998277;28;20398;-82
2024/02/07 10:36:12;;;;;;;;;;;7.10;99.90;;;7.32;75.72;99588.97;4998056;28;20046;-82
2024/02/07 10:38:41;;;;;;;18.13;5.82;;;7.10;99.90;;;7.30;75.78;99594.50;4998064;28;19968;-82
2024/02/07 10:41:09;;;;;;;15.65;6.43;;;7.10;99.90;;;7.33;75.73;99595.94;5014031;28;20046;-82
2024/02/07 10:43:38;;;;;;;15.73;6.55;;;7.10;99.90;;;7.34;75.71;99582.44;4997339;28;20042;-82
2024/02/07 10:46:08;;;;;;;15.13;6.50;;;7.10;99.90;;;7.35;75.55;99568.16;5013192;28;20077;-82
2024/02/07 10:48:36;;;;;;;18.17;7.13;;;7.10;99.90;;;7.32;75.59;99588.97;5016316;28;20547;-82
2024/02/07 10:51:04;;;;;;;12.18;7.07;;;7.10;99.90;;;7.37;75.95;99591.78;5000354;28;20100;-82
2024/02/07 10:53:32;;;;;;;18.23;7.95;;;7.10;99.90;;;7.35;75.75;99585.91;4999742;28;20141;-82
2024/02/07 10:56:04;;;;;;;17.02;7.70;;;7.10;99.90;;;7.34;75.87;99574.47;4983935;28;20140;-82
2024/02/07 10:58:32;;;;;;;17.45;8.45;;;7.10;99.90;;;7.32;76.07;99573.91;4999656;28;20046;-82
2024/02/07 11:01:00;;;;;;;17.95;8.68;;;7.10;99.90;;;7.34;76.21;99581.63;5017383;28;20429;-82
2024/02/07 11:03:30;;;;;;;18.60;8.55;;;7.20;99.90;;;7.38;76.37;99577.53;5000130;28;20108;-82
2024/02/07 11:06:02;;;;;;;19.67;9.63;;;7.20;99.90;;;7.41;76.27;99580.56;5021235;28;20050;-82
2024/02/07 11:08:30;;;;;;;21.13;9.60;;;7.20;99.90;;;7.40;76.35;99562.22;5021282;28;20044;-82
2024/02/07 11:10:59;;;;;;;18.75;9.48;;;7.20;99.90;;;7.41;76.01;99555.88;5002634;28;20494;-82
2024/02/07 11:13:29;;;;;;;24.52;11.15;;;7.20;99.90;;;7.37;76.11;99542.25;5021246;28;20130;-82
2024/02/07 11:15:57;;;;;;;26.60;12.15;;;7.20;99.90;;;7.38;75.91;99543.06;5004249;28;20042;-82
2024/02/07 11:18:25;;;;;;;22.83;11.85;;;7.20;99.90;;;7.41;76.36;99543.41;5040705;28;20041;-82
2024/02/07 11:20:57;;;;;;;25.33;11.50;;;7.20;99.90;;;7.44;76.50;99544.84;5024870;28;20053;-82
2024/02/07 11:23:35;;;;;;;27.88;12.55;;;7.30;99.90;;;7.46;76.59;99521.56;5042715;28;20049;-82
2024/02/07 11:26:04;;;;;;;26.52;12.57;;;7.30;99.90;;;7.48;76.50;99543.41;5041936;28;20052;-82
2024/02/07 11:28:33;;;;;;;22.40;11.45;;;7.30;99.90;;;7.49;76.59;99552.97;5021405;28;20047;-82
2024/02/07 11:31:02;;;;;;;23.65;12.52;;;7.30;99.90;;;7.48;76.69;99543.41;5019783;28;20563;-82
2024/02/07 11:33:34;;;;;;;28.77;13.05;;;7.20;99.90;;;7.49;76.41;99542.34;5020801;28;20501;-82
2024/02/07 11:36:16;;;;;;;26.83;12.32;;;7.20;99.90;;;7.49;76.55;99532.56;5037461;28;20080;-82